createdAt,value
2018-08-03T00:00:07.430Z,97.10
2018-08-03T00:02:35.639Z,96.90
2018-08-03T00:05:03.844Z,96.90
2018-08-03T00:07:32.086Z,96.60
2018-08-03T00:10:00.287Z,97.00
2018-08-03T00:12:28.540Z,96.40
2018-08-03T00:14:56.746Z,96.70
2018-08-03T00:17:31.510Z,96.50
2018-08-03T00:19:59.710Z,96.10
2018-08-03T00:22:27.922Z,96.00
2018-08-03T00:24:56.110Z,96.00
2018-08-03T00:27:24.337Z,96.40
2018-08-03T00:29:52.530Z,96.20
2018-08-03T00:32:20.721Z,96.40
2018-08-03T00:34:48.909Z,96.80
2018-08-03T00:37:17.127Z,96.50
2018-08-03T00:39:45.321Z,96.40
2018-08-03T00:42:13.526Z,96.50
2018-08-03T00:44:41.750Z,96.40
2018-08-03T00:47:09.959Z,96.60
2018-08-03T00:49:38.158Z,96.50
2018-08-03T00:52:06.406Z,96.10
2018-08-03T00:54:34.627Z,96.00
2018-08-03T00:57:02.827Z,96.40
2018-08-03T00:59:31.009Z,96.40
2018-08-03T01:01:59.211Z,96.50
2018-08-03T01:04:27.404Z,96.00
2018-08-03T01:06:55.595Z,97.00
2018-08-03T01:09:23.809Z,97.10
2018-08-03T01:11:51.997Z,97.10
2018-08-03T01:14:20.182Z,97.20
2018-08-03T01:16:48.387Z,97.30
2018-08-03T01:19:16.572Z,97.40
2018-08-03T01:21:45.396Z,97.40
2018-08-03T01:24:13.606Z,97.00
2018-08-03T01:26:41.813Z,97.90
2018-08-03T01:29:10.013Z,97.70
2018-08-03T01:31:38.224Z,97.60
2018-08-03T01:34:06.438Z,97.00
2018-08-03T01:36:34.646Z,96.50
2018-08-03T01:39:03.046Z,96.90
2018-08-03T01:41:31.226Z,97.50
2018-08-03T01:43:59.406Z,98.10
2018-08-03T01:46:27.590Z,98.00
2018-08-03T01:48:55.767Z,98.80
2018-08-03T01:51:23.951Z,98.00
2018-08-03T01:53:52.143Z,98.60
2018-08-03T01:56:20.346Z,98.60
2018-08-03T01:58:48.536Z,98.90
2018-08-03T02:01:16.705Z,98.90
2018-08-03T02:03:44.939Z,99.20
2018-08-03T02:06:13.124Z,99.30
2018-08-03T02:08:41.318Z,99.10
2018-08-03T02:11:09.514Z,99.10
2018-08-03T02:13:37.703Z,99.50
2018-08-03T02:16:05.878Z,99.70
2018-08-03T02:18:34.083Z,99.50
2018-08-03T02:21:02.248Z,99.70
2018-08-03T02:23:30.427Z,99.90
2018-08-03T02:25:58.735Z,99.90
2018-08-03T02:28:27.083Z,99.90
2018-08-03T02:30:55.309Z,99.90
2018-08-03T02:33:23.630Z,99.80
2018-08-03T02:35:51.818Z,99.90
2018-08-03T02:38:20.033Z,99.90
2018-08-03T02:40:48.232Z,99.90
2018-08-03T02:43:16.443Z,99.90
2018-08-03T02:45:44.642Z,99.90
2018-08-03T02:48:12.855Z,99.90
2018-08-03T02:50:41.053Z,99.90
2018-08-03T02:53:09.280Z,99.90
2018-08-03T02:55:37.472Z,99.60
2018-08-03T02:58:05.702Z,99.50
2018-08-03T03:00:33.945Z,99.90
2018-08-03T03:03:02.171Z,99.60
2018-08-03T03:05:30.376Z,99.70
2018-08-03T03:07:58.578Z,99.40
2018-08-03T03:10:26.790Z,99.00
2018-08-03T03:12:55.000Z,99.40
2018-08-03T03:15:23.211Z,99.40
2018-08-03T03:17:51.407Z,99.90
2018-08-03T03:20:19.623Z,99.90
2018-08-03T03:22:47.813Z,99.90
2018-08-03T03:25:16.146Z,99.80
2018-08-03T03:27:44.375Z,99.90
2018-08-03T03:30:12.590Z,99.70
2018-08-03T03:32:40.847Z,99.90
2018-08-03T03:35:09.024Z,99.90
2018-08-03T03:37:37.235Z,99.90
2018-08-03T03:40:05.458Z,99.90
2018-08-03T03:42:33.663Z,99.90
2018-08-03T03:45:01.880Z,99.90
2018-08-03T03:47:30.078Z,99.90
2018-08-03T03:49:58.293Z,99.90
2018-08-03T03:52:26.503Z,99.90
2018-08-03T03:54:55.084Z,99.90
2018-08-03T03:57:23.281Z,99.90
2018-08-03T03:59:51.487Z,99.90
2018-08-03T04:02:19.684Z,99.90
2018-08-03T04:04:47.905Z,99.90
2018-08-03T04:07:16.102Z,99.90
2018-08-03T04:09:44.330Z,99.90
2018-08-03T04:12:12.555Z,99.90
2018-08-03T04:14:40.766Z,99.90
2018-08-03T04:17:08.971Z,99.90
2018-08-03T04:19:37.315Z,99.90
2018-08-03T04:22:05.510Z,99.90
2018-08-03T04:24:33.736Z,99.90
2018-08-03T04:27:01.935Z,99.90
2018-08-03T04:29:30.191Z,99.90
2018-08-03T04:31:58.414Z,99.90
2018-08-03T04:34:26.639Z,99.90
2018-08-03T04:36:54.871Z,99.90
2018-08-03T04:39:23.098Z,99.90
2018-08-03T04:41:51.325Z,99.90
2018-08-03T04:44:19.562Z,99.90
2018-08-03T04:46:47.804Z,99.90
2018-08-03T04:49:16.003Z,99.90
2018-08-03T04:51:44.242Z,99.90
2018-08-03T04:54:12.464Z,99.90
2018-08-03T04:56:40.694Z,99.90
2018-08-03T04:59:08.902Z,99.90
2018-08-03T05:01:37.119Z,99.90
2018-08-03T05:04:05.330Z,99.90
2018-08-03T05:06:33.663Z,99.90
2018-08-03T05:09:01.854Z,99.90
2018-08-03T05:11:30.071Z,99.90
2018-08-03T05:13:58.274Z,99.90
2018-08-03T05:16:26.507Z,99.90
2018-08-03T05:18:54.754Z,99.80
2018-08-03T05:21:22.979Z,99.90
2018-08-03T05:23:51.186Z,99.90
2018-08-03T05:26:19.414Z,99.90
2018-08-03T05:28:47.611Z,99.90
2018-08-03T05:31:15.821Z,99.90
2018-08-03T05:33:44.017Z,99.90
2018-08-03T05:36:12.269Z,99.90
2018-08-03T05:38:40.437Z,99.90
2018-08-03T05:41:08.648Z,99.90
2018-08-03T05:43:36.842Z,99.90
2018-08-03T05:46:05.070Z,99.90
2018-08-03T05:48:33.282Z,99.90
2018-08-03T05:51:01.497Z,99.90
2018-08-03T05:53:29.702Z,99.90
2018-08-03T05:55:57.894Z,99.90
2018-08-03T05:58:26.116Z,99.90
2018-08-03T06:00:54.323Z,99.90
2018-08-03T06:03:22.545Z,99.90
2018-08-03T06:05:50.759Z,99.90
2018-08-03T06:08:19.027Z,99.90
2018-08-03T06:10:47.158Z,99.90
2018-08-03T06:13:15.363Z,99.90
2018-08-03T06:15:43.566Z,99.90
2018-08-03T06:18:11.774Z,99.90
2018-08-03T06:20:39.975Z,99.90
2018-08-03T06:23:08.190Z,99.50
2018-08-03T06:25:36.382Z,99.20
2018-08-03T06:28:04.638Z,99.20
2018-08-03T06:30:32.849Z,99.10
2018-08-03T06:33:01.080Z,98.90
2018-08-03T06:35:29.280Z,98.40
2018-08-03T06:37:57.516Z,98.40
2018-08-03T06:40:25.776Z,98.40
2018-08-03T06:42:53.999Z,98.10
2018-08-03T06:45:22.220Z,98.00
2018-08-03T06:47:50.451Z,98.00
2018-08-03T06:50:18.661Z,97.80
2018-08-03T06:52:46.873Z,97.80
2018-08-03T06:55:15.096Z,97.10
2018-08-03T06:57:43.318Z,96.50
2018-08-03T07:00:11.578Z,96.10
2018-08-03T07:02:39.854Z,95.60
2018-08-03T07:05:08.056Z,95.60
2018-08-03T07:07:36.275Z,95.40
2018-08-03T07:10:04.641Z,95.00
2018-08-03T07:12:32.875Z,94.30
2018-08-03T07:15:01.159Z,93.60
2018-08-03T07:17:29.348Z,92.80
2018-08-03T07:19:57.574Z,92.90
2018-08-03T07:22:25.860Z,93.00
2018-08-03T07:24:54.179Z,92.10
2018-08-03T07:27:22.419Z,92.20
2018-08-03T07:29:50.641Z,92.20
2018-08-03T07:32:18.826Z,91.70
2018-08-03T07:34:47.057Z,91.10
2018-08-03T07:37:15.360Z,91.10
2018-08-03T07:39:43.558Z,90.70
2018-08-03T07:42:11.766Z,90.80
2018-08-03T07:44:40.015Z,90.70
2018-08-03T07:47:08.386Z,89.20
2018-08-03T07:49:36.584Z,88.80
2018-08-03T07:52:04.815Z,89.70
2018-08-03T07:54:33.023Z,90.20
2018-08-03T07:57:01.223Z,89.00
2018-08-03T07:59:29.434Z,85.90
2018-08-03T08:01:57.622Z,82.90
2018-08-03T08:04:25.895Z,84.60
2018-08-03T08:06:54.077Z,80.70
2018-08-03T08:09:22.286Z,78.20
2018-08-03T08:11:50.512Z,78.70
2018-08-03T08:14:18.701Z,74.50
2018-08-03T08:16:46.915Z,73.70
2018-08-03T08:19:15.130Z,71.20
2018-08-03T08:21:43.325Z,69.20
2018-08-03T08:24:11.525Z,67.80
2018-08-03T08:26:39.730Z,67.80
2018-08-03T08:29:07.973Z,63.20
2018-08-03T08:31:36.252Z,62.90
2018-08-03T08:34:04.422Z,65.40
2018-08-03T08:36:32.629Z,63.10
2018-08-03T08:39:00.867Z,61.50
2018-08-03T08:41:29.096Z,62.30
2018-08-03T08:43:57.467Z,60.40
2018-08-03T08:46:25.545Z,61.70
2018-08-03T08:48:53.750Z,59.20
2018-08-03T08:51:21.970Z,58.30
2018-08-03T08:53:50.169Z,58.70
2018-08-03T08:56:18.389Z,57.30
2018-08-03T08:58:46.585Z,58.30
2018-08-03T09:01:14.815Z,58.00
2018-08-03T09:03:43.027Z,58.20
2018-08-03T09:06:11.255Z,59.50
2018-08-03T09:08:39.460Z,58.50
2018-08-03T09:11:08.252Z,57.80
2018-08-03T09:13:36.531Z,58.20
2018-08-03T09:16:04.753Z,58.60
2018-08-03T09:18:32.977Z,57.70
2018-08-03T09:21:01.175Z,58.40
2018-08-03T09:23:29.387Z,58.20
2018-08-03T09:25:57.609Z,58.30
2018-08-03T09:28:25.894Z,58.20
2018-08-03T09:30:54.125Z,57.50
2018-08-03T09:33:22.328Z,58.60
2018-08-03T09:35:50.554Z,58.00
2018-08-03T09:38:18.782Z,56.60
2018-08-03T09:40:47.012Z,57.70
2018-08-03T09:43:15.231Z,57.40
2018-08-03T09:45:43.458Z,56.20
2018-08-03T09:48:11.695Z,55.60
2018-08-03T09:50:39.903Z,55.30
2018-08-03T09:53:08.131Z,56.10
2018-08-03T09:55:36.355Z,55.80
2018-08-03T09:58:04.629Z,56.10
2018-08-03T10:00:39.319Z,55.60
2018-08-03T10:03:07.914Z,56.30
2018-08-03T10:05:36.150Z,54.70
2018-08-03T10:08:04.872Z,55.30
2018-08-03T10:10:33.582Z,54.80
2018-08-03T10:13:02.455Z,53.50
2018-08-03T10:15:31.181Z,54.30
2018-08-03T10:17:59.462Z,52.80
2018-08-03T10:20:28.205Z,52.70
2018-08-03T10:22:56.940Z,54.20
2018-08-03T10:25:25.167Z,53.10
2018-08-03T10:27:53.406Z,51.60
2018-08-03T10:30:22.291Z,51.40
2018-08-03T10:32:51.085Z,50.50
2018-08-03T10:35:19.607Z,50.20
2018-08-03T10:37:47.845Z,49.00
2018-08-03T10:40:16.065Z,49.60
2018-08-03T10:42:44.318Z,48.70
2018-08-03T10:45:12.525Z,48.90
2018-08-03T10:47:40.882Z,49.50
2018-08-03T10:50:09.177Z,47.90
2018-08-03T10:52:37.402Z,49.20
2018-08-03T10:55:05.623Z,48.20
2018-08-03T10:57:33.855Z,47.70
2018-08-03T11:00:02.104Z,45.60
2018-08-03T11:02:30.339Z,48.70
2018-08-03T11:04:58.568Z,47.00
2018-08-03T11:07:26.785Z,46.30
2018-08-03T11:09:55.035Z,46.50
2018-08-03T11:12:23.267Z,46.20
2018-08-03T11:14:51.494Z,46.90
2018-08-03T11:17:19.720Z,46.50
2018-08-03T11:19:47.934Z,46.20
2018-08-03T11:22:16.195Z,45.90
2018-08-03T11:24:44.436Z,46.20
2018-08-03T11:27:12.673Z,46.20
2018-08-03T11:29:40.929Z,47.60
2018-08-03T11:32:09.135Z,47.10
2018-08-03T11:34:37.347Z,48.50
2018-08-03T11:37:05.881Z,48.90
2018-08-03T11:39:34.093Z,48.90
2018-08-03T11:42:02.338Z,48.00
2018-08-03T11:44:30.546Z,48.30
2018-08-03T11:46:59.195Z,49.60
2018-08-03T11:49:27.412Z,48.70
2018-08-03T11:51:55.653Z,49.10
2018-08-03T11:54:23.869Z,49.60
2018-08-03T11:56:52.096Z,50.20
2018-08-03T11:59:20.340Z,48.80
2018-08-03T12:01:48.762Z,48.50
2018-08-03T12:04:16.923Z,47.90
2018-08-03T12:06:45.147Z,48.40
2018-08-03T12:09:13.371Z,48.10
2018-08-03T12:11:41.575Z,48.40
2018-08-03T12:14:09.806Z,48.40
2018-08-03T12:16:38.021Z,48.40
2018-08-03T12:19:06.267Z,48.50
2018-08-03T12:21:34.497Z,48.70
2018-08-03T12:24:02.734Z,49.00
2018-08-03T12:26:30.943Z,49.00
2018-08-03T12:28:59.148Z,49.20
2018-08-03T12:31:27.414Z,49.50
2018-08-03T12:33:55.633Z,49.30
2018-08-03T12:36:23.818Z,49.20
2018-08-03T12:38:52.002Z,49.30
2018-08-03T12:41:20.242Z,49.30
2018-08-03T12:43:48.460Z,48.60
2018-08-03T12:46:16.649Z,49.00
2018-08-03T12:48:44.845Z,48.90
2018-08-03T12:51:13.053Z,49.50
2018-08-03T12:53:41.265Z,49.90
2018-08-03T12:56:09.459Z,49.30
2018-08-03T12:58:37.677Z,49.00
2018-08-03T13:01:05.950Z,49.50
2018-08-03T13:03:34.204Z,50.30
2018-08-03T13:06:02.410Z,49.60
2018-08-03T13:08:30.765Z,50.30
2018-08-03T13:10:58.855Z,50.50
2018-08-03T13:13:27.078Z,48.00
2018-08-03T13:15:55.291Z,49.20
2018-08-03T13:18:23.490Z,48.80
2018-08-03T13:20:51.681Z,49.50
2018-08-03T13:23:19.893Z,49.90
2018-08-03T13:25:48.084Z,50.10
2018-08-03T13:28:16.302Z,50.00
2018-08-03T13:30:44.505Z,50.20
2018-08-03T13:33:12.696Z,49.70
2018-08-03T13:35:40.903Z,49.60
2018-08-03T13:38:09.099Z,49.40
2018-08-03T13:40:37.297Z,50.40
2018-08-03T13:43:05.490Z,49.70
2018-08-03T13:45:33.698Z,50.10
2018-08-03T13:48:01.904Z,48.80
2018-08-03T13:50:30.123Z,49.70
2018-08-03T13:52:58.323Z,49.90
2018-08-03T13:55:26.518Z,50.40
2018-08-03T13:57:54.749Z,50.40
2018-08-03T14:00:22.954Z,46.60
2018-08-03T14:02:51.154Z,47.50
2018-08-03T14:05:19.365Z,47.90
2018-08-03T14:07:47.554Z,48.60
2018-08-03T14:10:15.762Z,49.50
2018-08-03T14:12:43.942Z,49.80
2018-08-03T14:15:12.144Z,49.50
2018-08-03T14:17:40.333Z,49.20
2018-08-03T14:20:08.564Z,49.30
2018-08-03T14:22:36.817Z,49.00
2018-08-03T14:25:05.035Z,50.00
2018-08-03T14:27:33.513Z,49.40
2018-08-03T14:30:01.800Z,49.80
2018-08-03T14:32:29.978Z,49.90
2018-08-03T14:34:58.200Z,49.20
2018-08-03T14:37:26.419Z,45.30
2018-08-03T14:39:54.631Z,45.30
2018-08-03T14:42:22.841Z,46.70
2018-08-03T14:44:51.061Z,46.60
2018-08-03T14:47:19.283Z,45.00
2018-08-03T14:49:47.514Z,45.80
2018-08-03T14:52:15.740Z,46.90
2018-08-03T14:54:43.957Z,47.60
2018-08-03T14:57:12.166Z,47.20
2018-08-03T14:59:40.397Z,47.10
2018-08-03T15:02:08.598Z,47.30
2018-08-03T15:04:36.839Z,48.50
2018-08-03T15:07:05.167Z,48.90
2018-08-03T15:09:33.454Z,49.40
2018-08-03T15:12:01.658Z,49.30
2018-08-03T15:14:29.998Z,49.40
2018-08-03T15:16:58.217Z,49.00
2018-08-03T15:19:26.466Z,49.30
2018-08-03T15:21:54.676Z,49.10
2018-08-03T15:24:22.895Z,49.40
2018-08-03T15:26:51.236Z,48.90
2018-08-03T15:29:19.463Z,49.10
2018-08-03T15:31:47.671Z,49.20
2018-08-03T15:34:15.875Z,49.40
2018-08-03T15:36:44.793Z,49.40
2018-08-03T15:39:13.126Z,49.50
2018-08-03T15:41:41.331Z,49.80
2018-08-03T15:44:09.558Z,50.20
2018-08-03T15:46:37.910Z,49.20
2018-08-03T15:49:06.155Z,48.70
2018-08-03T15:51:34.360Z,48.80
2018-08-03T15:54:02.730Z,48.30
2018-08-03T15:56:32.954Z,48.10
2018-08-03T15:59:01.209Z,47.40
2018-08-03T16:01:29.430Z,47.80
2018-08-03T16:03:57.625Z,48.60
2018-08-03T16:06:27.328Z,48.40
2018-08-03T16:08:55.533Z,48.30
2018-08-03T16:11:23.737Z,48.60
2018-08-03T16:13:51.948Z,58.80
2018-08-03T16:16:20.343Z,64.50
2018-08-03T16:18:48.544Z,68.00
2018-08-03T16:21:16.822Z,70.40
2018-08-03T16:23:45.052Z,78.60
2018-08-03T16:26:13.272Z,87.90
2018-08-03T16:28:41.533Z,90.10
2018-08-03T16:31:09.750Z,93.30
2018-08-03T16:33:37.972Z,96.10
2018-08-03T16:36:06.206Z,98.10
2018-08-03T16:38:34.476Z,98.50
2018-08-03T16:41:02.727Z,99.90
2018-08-03T16:43:30.919Z,99.90
2018-08-03T16:45:59.156Z,97.30
2018-08-03T16:48:27.449Z,96.20
2018-08-03T16:50:55.675Z,97.20
2018-08-03T16:53:23.872Z,96.80
2018-08-03T16:55:52.333Z,97.00
2018-08-03T16:58:20.574Z,97.10
2018-08-03T17:00:48.784Z,98.50
2018-08-03T17:03:16.979Z,99.40
2018-08-03T17:05:45.177Z,98.20
2018-08-03T17:08:13.378Z,97.90
2018-08-03T17:10:41.574Z,97.60
2018-08-03T17:13:09.852Z,98.00
2018-08-03T17:15:38.047Z,98.10
2018-08-03T17:18:06.236Z,97.60
2018-08-03T17:20:34.456Z,98.50
2018-08-03T17:23:02.780Z,99.00
2018-08-03T17:25:30.976Z,99.80
2018-08-03T17:27:59.239Z,99.00
2018-08-03T17:30:27.409Z,98.40
2018-08-03T17:32:55.620Z,98.20
2018-08-03T17:35:23.843Z,98.60
2018-08-03T17:37:52.063Z,98.30
2018-08-03T17:40:20.293Z,98.20
2018-08-03T17:42:48.544Z,97.50
2018-08-03T17:45:16.711Z,98.30
2018-08-03T17:47:44.945Z,98.60
2018-08-03T17:50:13.156Z,98.90
2018-08-03T17:52:41.365Z,98.70
2018-08-03T17:55:09.547Z,99.30
2018-08-03T17:57:38.048Z,98.70
2018-08-03T18:00:06.716Z,98.90
2018-08-03T18:02:34.913Z,99.10
2018-08-03T18:05:03.149Z,99.00
2018-08-03T18:07:31.347Z,98.50
2018-08-03T18:09:59.543Z,98.20
2018-08-03T18:12:27.818Z,97.90
2018-08-03T18:14:56.024Z,97.90
2018-08-03T18:17:24.232Z,98.70
2018-08-03T18:19:52.443Z,99.70
2018-08-03T18:22:20.659Z,99.90
2018-08-03T18:24:48.877Z,99.90
2018-08-03T18:27:17.125Z,99.90
2018-08-03T18:29:45.367Z,99.00
2018-08-03T18:32:13.563Z,98.70
2018-08-03T18:34:41.795Z,98.80
2018-08-03T18:37:09.992Z,99.10
2018-08-03T18:39:38.238Z,99.90
2018-08-03T18:42:06.459Z,99.50
2018-08-03T18:44:34.708Z,99.50
2018-08-03T18:47:02.911Z,98.70
2018-08-03T18:49:31.132Z,98.90
2018-08-03T18:51:59.324Z,99.00
2018-08-03T18:54:27.518Z,98.70
2018-08-03T18:56:55.710Z,98.70
2018-08-03T18:59:23.914Z,98.50
2018-08-03T19:01:52.163Z,98.60
2018-08-03T19:04:20.376Z,98.40
2018-08-03T19:06:48.570Z,98.80
2018-08-03T19:09:16.780Z,98.80
2018-08-03T19:11:44.975Z,99.50
2018-08-03T19:14:13.192Z,99.90
2018-08-03T19:16:41.469Z,99.90
2018-08-03T19:19:09.693Z,99.00
2018-08-03T19:21:38.148Z,98.50
2018-08-03T19:24:06.609Z,98.30
2018-08-03T19:26:34.814Z,98.90
2018-08-03T19:29:03.045Z,99.90
2018-08-03T19:31:31.255Z,99.70
2018-08-03T19:33:59.465Z,99.30
2018-08-03T19:36:27.664Z,99.10
2018-08-03T19:38:55.877Z,98.60
2018-08-03T19:41:24.085Z,97.70
2018-08-03T19:43:52.501Z,97.80
2018-08-03T19:46:20.732Z,98.00
2018-08-03T19:48:48.952Z,98.10
2018-08-03T19:51:17.244Z,98.10
2018-08-03T19:53:45.448Z,98.00
2018-08-03T19:56:13.646Z,97.20
2018-08-03T19:58:42.001Z,97.10
2018-08-03T20:01:10.184Z,97.00
2018-08-03T20:03:38.769Z,97.40
2018-08-03T20:06:06.981Z,97.70
2018-08-03T20:08:35.361Z,97.20
2018-08-03T20:11:03.562Z,96.90
2018-08-03T20:13:31.893Z,97.00
2018-08-03T20:16:00.287Z,96.70
2018-08-03T20:18:28.499Z,97.50
2018-08-03T20:20:56.725Z,97.10
2018-08-03T20:23:24.959Z,97.80
2018-08-03T20:25:53.226Z,97.00
2018-08-03T20:28:21.490Z,97.30
2018-08-03T20:30:49.694Z,99.60
2018-08-03T20:33:18.104Z,98.80
2018-08-03T20:35:46.330Z,97.20
2018-08-03T20:38:14.596Z,97.80
2018-08-03T20:40:42.912Z,96.50
2018-08-03T20:43:11.237Z,97.40
2018-08-03T20:45:39.547Z,97.60
2018-08-03T20:48:07.866Z,99.30
2018-08-03T20:50:36.099Z,98.90
2018-08-03T20:53:04.327Z,99.90
2018-08-03T20:55:32.570Z,99.90
2018-08-03T20:58:01.103Z,99.90
2018-08-03T21:00:29.360Z,99.90
2018-08-03T21:02:57.582Z,99.90
2018-08-03T21:05:25.810Z,99.90
2018-08-03T21:07:54.019Z,99.90
2018-08-03T21:10:22.240Z,99.90
2018-08-03T21:12:50.471Z,99.90
2018-08-03T21:15:18.679Z,99.90
2018-08-03T21:17:46.889Z,99.90
2018-08-03T21:20:15.114Z,99.90
2018-08-03T21:22:43.324Z,99.90
2018-08-03T21:25:11.561Z,99.90
2018-08-03T21:27:39.771Z,99.90
2018-08-03T21:30:09.148Z,99.90
2018-08-03T21:32:37.390Z,99.90
2018-08-03T21:35:09.038Z,99.90
2018-08-03T21:37:37.240Z,99.90
2018-08-03T21:40:05.773Z,99.90
2018-08-03T21:42:34.176Z,99.90
2018-08-03T21:45:02.420Z,99.90
2018-08-03T21:47:30.646Z,99.90
2018-08-03T21:49:59.710Z,99.90
2018-08-03T21:52:27.934Z,99.90
2018-08-03T21:54:56.121Z,99.90
2018-08-03T21:57:24.350Z,99.90
2018-08-03T21:59:52.545Z,99.90
2018-08-03T22:02:20.753Z,99.90
2018-08-03T22:04:48.941Z,99.90
2018-08-03T22:07:17.134Z,99.90
2018-08-03T22:09:45.333Z,99.90
2018-08-03T22:12:13.590Z,99.90
2018-08-03T22:14:41.740Z,99.90
2018-08-03T22:17:09.979Z,99.90
2018-08-03T22:19:38.170Z,99.90
2018-08-03T22:22:06.357Z,99.90
2018-08-03T22:24:34.698Z,99.90
2018-08-03T22:27:02.874Z,99.90
2018-08-03T22:29:31.097Z,99.90
2018-08-03T22:31:59.325Z,99.90
2018-08-03T22:34:27.529Z,99.90
2018-08-03T22:36:55.772Z,99.90
2018-08-03T22:39:23.998Z,99.90
2018-08-03T22:41:52.230Z,99.90
2018-08-03T22:44:20.431Z,99.90
2018-08-03T22:46:48.633Z,99.90
2018-08-03T22:49:16.836Z,99.90
2018-08-03T22:51:45.064Z,99.90
2018-08-03T22:54:13.249Z,99.90
2018-08-03T22:56:41.474Z,99.90
2018-08-03T22:59:09.673Z,99.90
2018-08-03T23:01:37.870Z,99.90
2018-08-03T23:04:06.089Z,99.90
2018-08-03T23:06:34.301Z,99.90
2018-08-03T23:09:02.494Z,99.90
2018-08-03T23:11:30.677Z,99.90
2018-08-03T23:13:58.914Z,99.90
2018-08-03T23:16:27.098Z,99.90
2018-08-03T23:18:55.301Z,99.90
2018-08-03T23:21:23.484Z,99.90
2018-08-03T23:23:51.688Z,99.90
2018-08-03T23:26:19.882Z,99.90
2018-08-03T23:28:48.086Z,99.90
2018-08-03T23:31:16.282Z,99.90
2018-08-03T23:33:44.484Z,99.90
2018-08-03T23:36:12.677Z,99.90
2018-08-03T23:38:40.880Z,99.90
2018-08-03T23:41:09.070Z,99.90
2018-08-03T23:43:37.294Z,99.90
2018-08-03T23:46:05.527Z,99.90
2018-08-03T23:48:33.732Z,99.90
2018-08-03T23:51:01.931Z,99.90
2018-08-03T23:53:30.134Z,99.90
2018-08-03T23:55:58.338Z,99.90
2018-08-03T23:58:26.538Z,99.90
